createdAt,value
2019-04-07T00:00:10.792Z,18.31
2019-04-07T00:01:11.639Z,18.3
2019-04-07T00:02:10.799Z,18.3
2019-04-07T00:03:10.886Z,18.3
2019-04-07T00:04:11.143Z,18.3
2019-04-07T00:05:15.106Z,18.3
2019-04-07T00:06:11.152Z,18.3
2019-04-07T00:07:10.740Z,18.29
2019-04-07T00:08:11.368Z,18.29
2019-04-07T00:09:10.992Z,18.29
2019-04-07T00:10:11.283Z,18.29
2019-04-07T00:11:10.807Z,18.29
2019-04-07T00:12:11.302Z,18.29
2019-04-07T00:13:10.989Z,18.29
2019-04-07T00:14:11.311Z,18.28
2019-04-07T00:15:11.541Z,18.28
2019-04-07T00:16:11.057Z,18.29
2019-04-07T00:17:12.344Z,18.28
2019-04-07T00:18:10.901Z,18.28
2019-04-07T00:19:11.345Z,18.27
2019-04-07T00:20:10.963Z,18.27
2019-04-07T00:21:11.472Z,18.27
2019-04-07T00:22:11.465Z,18.27
2019-04-07T00:23:10.860Z,18.26
2019-04-07T00:24:11.002Z,18.26
2019-04-07T00:25:10.905Z,18.26
2019-04-07T00:26:11.554Z,18.26
2019-04-07T00:27:10.831Z,18.26
2019-04-07T00:28:10.991Z,18.26
2019-04-07T00:29:11.133Z,18.26
2019-04-07T00:30:11.008Z,18.25
2019-04-07T00:31:11.090Z,18.25
2019-04-07T00:32:11.349Z,18.25
2019-04-07T00:33:11.544Z,18.25
2019-04-07T00:34:11.050Z,18.25
2019-04-07T00:35:33.709Z,18.24
2019-04-07T00:36:10.749Z,18.25
2019-04-07T00:37:11.805Z,18.24
2019-04-07T00:38:10.819Z,18.24
2019-04-07T00:39:11.611Z,18.24
2019-04-07T00:40:10.908Z,18.24
2019-04-07T00:41:11.193Z,18.23
2019-04-07T00:42:12.166Z,18.23
2019-04-07T00:43:11.103Z,18.24
2019-04-07T00:44:11.630Z,18.23
2019-04-07T00:45:10.932Z,18.23
2019-04-07T00:46:11.754Z,18.22
2019-04-07T00:47:10.910Z,18.23
2019-04-07T00:48:10.898Z,18.23
2019-04-07T00:49:11.685Z,18.23
2019-04-07T00:50:10.959Z,18.23
2019-04-07T00:51:11.376Z,18.22
2019-04-07T00:52:10.992Z,18.22
2019-04-07T00:53:11.161Z,18.22
2019-04-07T00:54:10.763Z,18.22
2019-04-07T00:55:13.232Z,18.22
2019-04-07T00:56:11.414Z,18.22
2019-04-07T00:57:11.118Z,18.21
2019-04-07T00:58:10.957Z,18.21
2019-04-07T00:59:11.139Z,18.21
2019-04-07T01:00:10.864Z,18.2
2019-04-07T01:01:11.773Z,18.2
2019-04-07T01:02:10.934Z,18.2
2019-04-07T01:03:10.919Z,18.2
2019-04-07T01:04:11.361Z,18.19
2019-04-07T01:05:11.678Z,18.19
2019-04-07T01:06:11.667Z,18.19
2019-04-07T01:07:11.580Z,18.19
2019-04-07T01:08:11.010Z,18.19
2019-04-07T01:09:11.067Z,18.19
2019-04-07T01:10:11.199Z,18.19
2019-04-07T01:11:11.511Z,18.18
2019-04-07T01:12:11.007Z,18.19
2019-04-07T01:13:10.915Z,18.19
2019-04-07T01:14:11.121Z,18.18
2019-04-07T01:15:11.140Z,18.18
2019-04-07T01:16:11.026Z,18.17
2019-04-07T01:17:10.798Z,18.17
2019-04-07T01:18:10.794Z,18.17
2019-04-07T01:19:10.902Z,18.17
2019-04-07T01:20:11.770Z,18.17
2019-04-07T01:21:10.884Z,18.17
2019-04-07T01:22:11.303Z,18.17
2019-04-07T01:23:10.885Z,18.17
2019-04-07T01:24:10.907Z,18.16
2019-04-07T01:25:11.510Z,18.16
2019-04-07T01:26:11.425Z,18.17
2019-04-07T01:27:11.741Z,18.16
2019-04-07T01:28:11.219Z,18.16
2019-04-07T01:29:10.978Z,18.16
2019-04-07T01:30:10.754Z,18.16
2019-04-07T01:31:10.748Z,18.15
2019-04-07T01:32:11.475Z,18.16
2019-04-07T01:33:10.769Z,18.16
2019-04-07T01:34:10.816Z,18.15
2019-04-07T01:35:11.385Z,18.15
2019-04-07T01:36:11.481Z,18.15
2019-04-07T01:37:11.064Z,18.14
2019-04-07T01:38:11.455Z,18.14
2019-04-07T01:39:10.910Z,18.14
2019-04-07T01:40:10.892Z,18.14
2019-04-07T01:41:11.272Z,18.15
2019-04-07T01:42:11.682Z,18.14
2019-04-07T01:43:10.954Z,18.14
2019-04-07T01:44:11.459Z,18.14
2019-04-07T01:45:11.643Z,18.14
2019-04-07T01:46:11.263Z,18.13
2019-04-07T01:47:11.583Z,18.13
2019-04-07T01:48:11.670Z,18.13
2019-04-07T01:49:11.897Z,18.13
2019-04-07T01:50:11.183Z,18.12
2019-04-07T01:51:10.973Z,18.13
2019-04-07T01:52:11.087Z,18.12
2019-04-07T01:53:10.728Z,18.12
2019-04-07T01:54:10.785Z,18.12
2019-04-07T01:55:11.512Z,18.1
2019-04-07T01:56:11.001Z,18.1
2019-04-07T01:57:10.823Z,18.11
2019-04-07T01:58:10.928Z,18.11
2019-04-07T01:59:12.371Z,18.11
2019-04-07T02:00:11.373Z,18.11
2019-04-07T02:01:11.010Z,18.11
2019-04-07T02:02:11.066Z,18.1
2019-04-07T02:03:11.276Z,18.1
2019-04-07T02:04:10.852Z,18.1
2019-04-07T02:05:11.041Z,18.1
2019-04-07T02:06:10.713Z,18.1
2019-04-07T02:07:10.899Z,18.1
2019-04-07T02:08:11.981Z,18.09
2019-04-07T02:09:11.337Z,18.09
2019-04-07T02:10:11.121Z,18.1
2019-04-07T02:11:11.534Z,18.1
2019-04-07T02:12:11.707Z,18.09
2019-04-07T02:13:11.243Z,18.09
2019-04-07T02:14:11.471Z,18.09
2019-04-07T02:15:11.481Z,18.09
2019-04-07T02:16:11.581Z,18.09
2019-04-07T02:17:11.086Z,18.08
2019-04-07T02:18:11.568Z,18.09
2019-04-07T02:19:11.237Z,18.08
2019-04-07T02:20:11.489Z,18.08
2019-04-07T02:21:11.092Z,18.08
2019-04-07T02:22:11.313Z,18.07
2019-04-07T02:23:11.765Z,18.07
2019-04-07T02:24:12.213Z,18.07
2019-04-07T02:25:11.024Z,18.07
2019-04-07T02:26:11.642Z,18.07
2019-04-07T02:27:10.695Z,18.07
2019-04-07T02:28:11.260Z,18.06
2019-04-07T02:29:10.763Z,18.06
2019-04-07T02:30:10.725Z,18.06
2019-04-07T02:31:10.928Z,18.06
2019-04-07T02:32:10.940Z,18.05
2019-04-07T02:33:11.091Z,18.05
2019-04-07T02:34:12.127Z,18.05
2019-04-07T02:35:10.859Z,18.05
2019-04-07T02:36:32.127Z,18.05
2019-04-07T02:37:10.839Z,18.05
2019-04-07T02:38:19.455Z,18.04
2019-04-07T02:39:11.442Z,18.05
2019-04-07T02:40:12.255Z,18.04
2019-04-07T02:41:11.106Z,18.05
2019-04-07T02:42:11.341Z,18.04
2019-04-07T02:43:10.943Z,18.04
2019-04-07T02:44:11.075Z,18.04
2019-04-07T02:45:11.293Z,18.04
2019-04-07T02:46:11.289Z,18.04
2019-04-07T02:47:10.877Z,18.04
2019-04-07T02:48:10.957Z,18.04
2019-04-07T02:49:11.967Z,18.03
2019-04-07T02:50:10.881Z,18.03
2019-04-07T02:51:11.322Z,18.03
2019-04-07T02:52:11.433Z,18.03
2019-04-07T02:53:11.371Z,18.04
2019-04-07T02:54:10.904Z,18.03
2019-04-07T02:55:11.180Z,18.02
2019-04-07T02:56:10.988Z,18.03
2019-04-07T02:57:10.902Z,18.03
2019-04-07T02:58:10.937Z,18.03
2019-04-07T02:59:14.785Z,18.02
2019-04-07T03:00:12.249Z,18.02
2019-04-07T03:01:11.698Z,18.02
2019-04-07T03:02:12.142Z,18.02
2019-04-07T03:03:11.122Z,18.02
2019-04-07T03:04:12.104Z,18.01
2019-04-07T03:05:12.247Z,18.01
2019-04-07T03:06:11.790Z,18.01
2019-04-07T03:07:11.547Z,18
2019-04-07T03:08:12.255Z,18
2019-04-07T03:09:11.170Z,18
2019-04-07T03:10:11.051Z,18
2019-04-07T03:11:10.961Z,18
2019-04-07T03:12:10.825Z,17.99
2019-04-07T03:13:10.975Z,17.99
2019-04-07T03:14:12.606Z,18
2019-04-07T03:15:11.459Z,18
2019-04-07T03:16:11.066Z,17.99
2019-04-07T03:17:12.035Z,17.99
2019-04-07T03:18:10.901Z,17.99
2019-04-07T03:19:11.204Z,17.99
2019-04-07T03:20:10.923Z,17.99
2019-04-07T03:21:13.293Z,17.98
2019-04-07T03:22:11.436Z,17.99
2019-04-07T03:23:10.794Z,17.98
2019-04-07T03:24:12.741Z,17.99
2019-04-07T03:25:11.473Z,17.98
2019-04-07T03:26:16.480Z,17.98
2019-04-07T03:27:11.013Z,17.98
2019-04-07T03:28:12.915Z,17.98
2019-04-07T03:29:12.143Z,17.98
2019-04-07T03:30:15.415Z,17.98
2019-04-07T03:31:23.871Z,17.98
2019-04-07T03:32:28.089Z,17.98
2019-04-07T03:33:30.001Z,17.98
2019-04-07T03:34:16.180Z,17.97
2019-04-07T03:35:30.632Z,17.98
2019-04-07T03:36:30.792Z,17.97
2019-04-07T03:38:12.356Z,17.98
2019-04-07T03:39:11.274Z,17.98
2019-04-07T03:40:14.039Z,17.98
2019-04-07T03:41:12.258Z,17.98
2019-04-07T03:42:10.985Z,17.98
2019-04-07T03:43:10.768Z,17.98
2019-04-07T03:44:14.038Z,17.98
2019-04-07T03:45:11.525Z,17.98
2019-04-07T03:46:10.773Z,17.99
2019-04-07T03:47:11.219Z,17.99
2019-04-07T03:48:11.024Z,18
2019-04-07T03:49:11.525Z,18.01
2019-04-07T03:50:12.597Z,18.01
2019-04-07T03:51:11.274Z,18.02
2019-04-07T03:52:12.079Z,18.03
2019-04-07T03:53:10.997Z,18.04
2019-04-07T03:54:10.976Z,18.04
2019-04-07T03:55:11.110Z,18.05
2019-04-07T03:56:11.023Z,18.06
2019-04-07T03:57:11.489Z,18.07
2019-04-07T03:58:10.735Z,18.09
2019-04-07T03:59:11.221Z,18.1
2019-04-07T04:00:10.866Z,18.1
2019-04-07T04:01:10.857Z,18.12
2019-04-07T04:02:12.420Z,18.13
2019-04-07T04:03:11.231Z,18.15
2019-04-07T04:04:10.910Z,18.17
2019-04-07T04:05:10.856Z,18.18
2019-04-07T04:06:14.058Z,18.19
2019-04-07T04:07:38.693Z,18.21
2019-04-07T04:08:11.553Z,18.23
2019-04-07T04:09:11.586Z,18.23
2019-04-07T04:10:11.011Z,18.25
2019-04-07T04:11:11.891Z,18.27
2019-04-07T04:12:11.944Z,18.29
2019-04-07T04:13:12.497Z,18.29
2019-04-07T04:14:11.291Z,18.3
2019-04-07T04:15:10.994Z,18.32
2019-04-07T04:16:10.915Z,18.33
2019-04-07T04:17:11.735Z,18.34
2019-04-07T04:18:12.156Z,18.35
2019-04-07T04:19:11.358Z,18.36
2019-04-07T04:20:10.967Z,18.37
2019-04-07T04:21:11.447Z,18.38
2019-04-07T04:22:14.282Z,18.4
2019-04-07T04:23:12.884Z,18.41
2019-04-07T04:24:10.788Z,18.41
2019-04-07T04:25:11.133Z,18.43
2019-04-07T04:26:10.933Z,18.43
2019-04-07T04:27:11.201Z,18.44
2019-04-07T04:28:10.837Z,18.44
2019-04-07T04:29:10.792Z,18.45
2019-04-07T04:30:13.641Z,18.46
2019-04-07T04:31:11.345Z,18.46
2019-04-07T04:32:11.602Z,18.47
2019-04-07T04:33:10.944Z,18.47
2019-04-07T04:34:12.176Z,18.48
2019-04-07T04:35:11.179Z,18.48
2019-04-07T04:36:10.800Z,18.48
2019-04-07T04:37:11.361Z,18.49
2019-04-07T04:38:10.926Z,18.5
2019-04-07T04:39:10.767Z,18.42
2019-04-07T04:40:10.953Z,18.3
2019-04-07T04:41:11.522Z,18.21
2019-04-07T04:42:11.722Z,18.15
2019-04-07T04:43:10.944Z,18.1
2019-04-07T04:44:10.843Z,18.04
2019-04-07T04:45:10.852Z,17.96
2019-04-07T04:46:15.337Z,17.92
2019-04-07T04:47:10.992Z,17.86
2019-04-07T04:48:12.194Z,17.81
2019-04-07T04:49:12.071Z,17.79
2019-04-07T04:50:11.108Z,17.74
2019-04-07T04:51:13.362Z,17.7
2019-04-07T04:52:11.810Z,17.61
2019-04-07T04:53:10.990Z,17.6
2019-04-07T04:54:11.288Z,17.56
2019-04-07T04:55:11.832Z,17.56
2019-04-07T04:56:11.149Z,17.49
2019-04-07T04:57:11.542Z,17.47
2019-04-07T04:58:11.541Z,17.44
2019-04-07T04:59:13.058Z,17.42
2019-04-07T05:00:10.944Z,17.4
2019-04-07T05:01:10.851Z,17.41
2019-04-07T05:02:11.031Z,17.53
2019-04-07T05:03:11.089Z,17.61
2019-04-07T05:04:11.643Z,17.68
2019-04-07T05:05:11.262Z,17.76
2019-04-07T05:06:12.072Z,17.79
2019-04-07T05:07:12.510Z,17.83
2019-04-07T05:08:11.682Z,17.86
2019-04-07T05:09:10.957Z,17.89
2019-04-07T05:10:11.093Z,17.92
2019-04-07T05:11:11.107Z,17.94
2019-04-07T05:12:10.677Z,17.97
2019-04-07T05:13:11.040Z,17.99
2019-04-07T05:14:11.588Z,18.01
2019-04-07T05:15:11.003Z,18.03
2019-04-07T05:16:12.047Z,18.04
2019-04-07T05:17:12.855Z,18.06
2019-04-07T05:18:11.028Z,18.08
2019-04-07T05:19:11.254Z,18.1
2019-04-07T05:20:11.155Z,18.11
2019-04-07T05:21:10.844Z,18.12
2019-04-07T05:22:11.460Z,18.13
2019-04-07T05:23:11.117Z,18.15
2019-04-07T05:24:11.704Z,18.16
2019-04-07T05:25:11.005Z,18.17
2019-04-07T05:26:11.202Z,18.17
2019-04-07T05:27:11.608Z,18.18
2019-04-07T05:28:11.513Z,18.19
2019-04-07T05:29:11.051Z,18.2
2019-04-07T05:30:11.425Z,18.21
2019-04-07T05:31:10.702Z,18.21
2019-04-07T05:32:11.303Z,18.22
2019-04-07T05:33:11.236Z,18.22
2019-04-07T05:34:10.922Z,18.23
2019-04-07T05:35:10.810Z,18.23
2019-04-07T05:36:10.852Z,18.23
2019-04-07T05:37:11.594Z,18.23
2019-04-07T05:38:11.499Z,18.23
2019-04-07T05:39:10.818Z,18.24
2019-04-07T05:40:11.509Z,18.24
2019-04-07T05:41:10.894Z,18.25
2019-04-07T05:42:11.023Z,18.25
2019-04-07T05:43:10.928Z,18.25
2019-04-07T05:44:11.531Z,18.26
2019-04-07T05:45:12.442Z,18.26
2019-04-07T05:46:11.154Z,18.26
2019-04-07T05:47:15.706Z,18.26
2019-04-07T05:48:11.058Z,18.27
2019-04-07T05:49:11.154Z,18.27
2019-04-07T05:50:11.365Z,18.28
2019-04-07T05:51:10.738Z,18.27
2019-04-07T05:52:10.748Z,18.28
2019-04-07T05:53:14.958Z,18.28
2019-04-07T05:54:12.618Z,18.28
2019-04-07T05:55:11.199Z,18.28
2019-04-07T05:56:11.315Z,18.28
2019-04-07T05:57:10.895Z,18.28
2019-04-07T05:58:13.439Z,18.29
2019-04-07T05:59:15.794Z,18.29
2019-04-07T06:00:17.155Z,18.29
2019-04-07T06:01:10.849Z,18.29
2019-04-07T06:02:12.131Z,18.29
2019-04-07T06:03:12.302Z,18.29
2019-04-07T06:04:19.619Z,18.29
2019-04-07T06:05:12.172Z,18.29
2019-04-07T06:06:11.695Z,18.29
2019-04-07T06:07:10.737Z,18.29
2019-04-07T06:08:41.112Z,18.29
2019-04-07T06:09:11.416Z,18.29
2019-04-07T06:10:10.773Z,18.29
2019-04-07T06:11:11.691Z,18.29
2019-04-07T06:12:10.922Z,18.29
2019-04-07T06:13:15.899Z,18.29
2019-04-07T06:14:17.486Z,18.28
2019-04-07T06:15:11.870Z,18.28
2019-04-07T06:16:10.890Z,18.29
2019-04-07T06:17:11.053Z,18.28
2019-04-07T06:18:11.754Z,18.28
2019-04-07T06:19:10.787Z,18.29
2019-04-07T06:20:19.094Z,18.28
2019-04-07T06:21:17.482Z,18.28
2019-04-07T06:22:11.287Z,18.29
2019-04-07T06:23:11.744Z,18.29
2019-04-07T06:24:11.503Z,18.28
2019-04-07T06:25:11.366Z,18.28
2019-04-07T06:26:13.339Z,18.28
2019-04-07T06:27:18.952Z,18.28
2019-04-07T06:28:10.854Z,18.28
2019-04-07T06:29:11.779Z,18.28
2019-04-07T06:30:11.937Z,18.28
2019-04-07T06:31:10.792Z,18.29
2019-04-07T06:32:11.642Z,18.28
2019-04-07T06:33:11.363Z,18.29
2019-04-07T06:34:12.316Z,18.28
2019-04-07T06:35:14.446Z,18.29
2019-04-07T06:36:11.705Z,18.29
2019-04-07T06:37:10.974Z,18.29
2019-04-07T06:38:10.864Z,18.29
2019-04-07T06:39:11.171Z,18.29
2019-04-07T06:40:11.328Z,18.29
2019-04-07T06:41:11.633Z,18.29
2019-04-07T06:42:11.097Z,18.29
2019-04-07T06:43:10.843Z,18.29
2019-04-07T06:44:24.378Z,18.29
2019-04-07T06:45:13.008Z,18.29
2019-04-07T06:46:10.825Z,18.29
2019-04-07T06:47:10.785Z,18.28
2019-04-07T06:48:11.681Z,18.28
2019-04-07T06:49:15.247Z,18.28
2019-04-07T06:50:17.088Z,18.28
2019-04-07T06:51:10.843Z,18.28
2019-04-07T06:52:11.576Z,18.28
2019-04-07T06:53:21.210Z,18.28
2019-04-07T06:54:11.511Z,18.27
2019-04-07T06:55:10.892Z,18.28
2019-04-07T06:56:11.215Z,18.27
2019-04-07T06:57:12.379Z,18.28
2019-04-07T06:58:11.958Z,18.28
2019-04-07T06:59:16.742Z,18.27
2019-04-07T07:00:11.256Z,18.27
2019-04-07T07:01:11.372Z,18.27
2019-04-07T07:02:10.797Z,18.27
2019-04-07T07:03:11.767Z,18.27
2019-04-07T07:04:14.146Z,18.27
2019-04-07T07:05:14.558Z,18.27
2019-04-07T07:06:11.316Z,18.27
2019-04-07T07:07:10.737Z,18.26
2019-04-07T07:08:12.841Z,18.26
2019-04-07T07:09:16.734Z,18.26
2019-04-07T07:10:11.790Z,18.26
2019-04-07T07:11:32.419Z,18.26
2019-04-07T07:12:41.178Z,18.26
2019-04-07T07:13:36.857Z,18.26
2019-04-07T07:14:47.251Z,18.26
2019-04-07T07:15:11.354Z,18.26
2019-04-07T07:16:18.087Z,18.26
2019-04-07T07:17:22.445Z,18.26
2019-04-07T07:18:11.592Z,18.26
2019-04-07T07:19:10.949Z,18.26
2019-04-07T07:20:12.543Z,18.26
2019-04-07T07:21:11.934Z,18.26
2019-04-07T07:22:18.720Z,18.25
2019-04-07T07:23:17.028Z,18.26
2019-04-07T07:24:26.510Z,18.26
2019-04-07T07:25:13.449Z,18.25
2019-04-07T07:26:11.742Z,18.26
2019-04-07T07:27:12.514Z,18.25
2019-04-07T07:28:13.796Z,18.25
2019-04-07T07:29:19.265Z,18.25
2019-04-07T07:30:10.844Z,18.25
2019-04-07T07:31:10.921Z,18.26
2019-04-07T07:32:12.768Z,18.25
2019-04-07T07:33:11.391Z,18.26
2019-04-07T07:34:12.018Z,18.26
2019-04-07T07:35:16.684Z,18.25
2019-04-07T07:36:10.927Z,18.25
2019-04-07T07:37:13.407Z,18.25
2019-04-07T07:38:10.689Z,18.25
2019-04-07T07:39:14.771Z,18.25
2019-04-07T07:40:18.679Z,18.25
2019-04-07T07:41:11.293Z,18.25
2019-04-07T07:42:12.355Z,18.25
2019-04-07T07:43:10.833Z,18.25
2019-04-07T07:44:10.818Z,18.26
2019-04-07T07:45:14.232Z,18.25
2019-04-07T07:46:10.749Z,18.25
2019-04-07T07:47:12.097Z,18.25
2019-04-07T07:48:11.084Z,18.25
2019-04-07T07:49:12.606Z,18.26
2019-04-07T07:50:12.313Z,18.26
2019-04-07T07:51:16.602Z,18.25
2019-04-07T07:52:18.741Z,18.25
2019-04-07T07:53:11.628Z,18.26
2019-04-07T07:54:17.393Z,18.25
2019-04-07T07:55:12.082Z,18.25
2019-04-07T07:56:14.523Z,18.25
2019-04-07T07:57:11.351Z,18.25
2019-04-07T07:58:10.684Z,18.25
2019-04-07T07:59:11.280Z,18.24
2019-04-07T08:00:11.484Z,18.24
2019-04-07T08:01:17.997Z,18.25
2019-04-07T08:02:21.096Z,18.24
2019-04-07T08:03:10.743Z,18.24
2019-04-07T08:04:10.827Z,18.24
2019-04-07T08:05:11.616Z,18.24
2019-04-07T08:06:11.906Z,18.24
2019-04-07T08:07:16.822Z,18.24
2019-04-07T08:08:11.965Z,18.24
2019-04-07T08:09:27.180Z,18.23
2019-04-07T08:10:11.146Z,18.23
2019-04-07T08:11:18.848Z,18.23
2019-04-07T08:12:11.777Z,18.24
2019-04-07T08:13:11.474Z,18.23
2019-04-07T08:14:18.597Z,18.23
2019-04-07T08:15:10.729Z,18.23
2019-04-07T08:16:11.375Z,18.23
2019-04-07T08:17:12.355Z,18.23
2019-04-07T08:18:12.570Z,18.24
2019-04-07T08:19:11.198Z,18.23
2019-04-07T08:20:13.238Z,18.23
2019-04-07T08:21:20.813Z,18.24
2019-04-07T08:22:11.843Z,18.25
2019-04-07T08:23:14.480Z,18.27
2019-04-07T08:24:19.382Z,18.28
2019-04-07T08:25:11.375Z,18.29
2019-04-07T08:26:13.573Z,18.3
2019-04-07T08:27:11.692Z,18.31
2019-04-07T08:28:10.839Z,18.32
2019-04-07T08:29:15.654Z,18.34
2019-04-07T08:30:14.139Z,18.35
2019-04-07T08:31:11.197Z,18.36
2019-04-07T08:32:11.289Z,18.38
2019-04-07T08:33:10.954Z,18.4
2019-04-07T08:34:11.113Z,18.41
2019-04-07T08:35:10.694Z,18.42
2019-04-07T08:36:15.147Z,18.44
2019-04-07T08:37:16.363Z,18.47
2019-04-07T08:38:14.126Z,18.48
2019-04-07T08:39:37.462Z,18.51
2019-04-07T08:40:12.070Z,18.54
2019-04-07T08:41:16.873Z,18.55
2019-04-07T08:42:20.914Z,18.58
2019-04-07T08:43:12.433Z,18.6
2019-04-07T08:44:11.695Z,18.61
2019-04-07T08:45:11.770Z,18.64
2019-04-07T08:46:11.213Z,18.66
2019-04-07T08:47:23.562Z,18.66
2019-04-07T08:48:11.122Z,18.7
2019-04-07T08:49:11.738Z,18.72
2019-04-07T08:50:10.837Z,18.74
2019-04-07T08:51:11.618Z,18.76
2019-04-07T08:52:13.071Z,18.78
2019-04-07T08:53:14.990Z,18.8
2019-04-07T08:54:18.592Z,18.82
2019-04-07T08:55:10.674Z,18.84
2019-04-07T08:56:12.054Z,18.85
2019-04-07T08:57:10.919Z,18.88
2019-04-07T08:58:38.520Z,18.9
2019-04-07T08:59:18.387Z,18.9
2019-04-07T09:00:18.505Z,18.91
2019-04-07T09:01:10.893Z,18.94
2019-04-07T09:02:11.629Z,18.96
2019-04-07T09:03:17.322Z,18.97
2019-04-07T09:04:18.802Z,18.98
2019-04-07T09:05:11.847Z,19
2019-04-07T09:06:11.150Z,19
2019-04-07T09:07:10.950Z,19.02
2019-04-07T09:08:10.768Z,19.03
2019-04-07T09:09:12.051Z,19.05
2019-04-07T09:10:10.635Z,19.06
2019-04-07T09:11:13.392Z,19.08
2019-04-07T09:12:11.610Z,19.09
2019-04-07T09:13:10.694Z,19.11
2019-04-07T09:14:11.011Z,19.12
2019-04-07T09:15:13.265Z,19.13
2019-04-07T09:16:18.642Z,19.14
2019-04-07T09:17:11.745Z,19.15
2019-04-07T09:18:19.279Z,19.17
2019-04-07T09:19:10.624Z,19.19
2019-04-07T09:20:12.181Z,19.21
2019-04-07T09:21:34.469Z,19.21
2019-04-07T09:22:12.928Z,19.21
2019-04-07T09:23:12.507Z,19.22
2019-04-07T09:24:12.710Z,19.24
2019-04-07T09:25:12.097Z,19.24
2019-04-07T09:26:12.494Z,19.26
2019-04-07T09:27:25.650Z,19.26
2019-04-07T09:28:11.990Z,19.27
2019-04-07T09:29:10.670Z,19.27
2019-04-07T09:30:11.408Z,19.28
2019-04-07T09:31:10.719Z,19.28
2019-04-07T09:32:11.014Z,19.3
2019-04-07T09:33:12.586Z,19.31
2019-04-07T09:34:11.748Z,19.32
2019-04-07T09:35:11.441Z,19.32
2019-04-07T09:36:11.353Z,19.33
2019-04-07T09:37:10.946Z,19.34
2019-04-07T09:38:11.209Z,19.34
2019-04-07T09:39:12.421Z,19.35
2019-04-07T09:40:17.149Z,19.36
2019-04-07T09:41:10.932Z,19.36
2019-04-07T09:42:10.782Z,19.38
2019-04-07T09:43:11.303Z,19.39
2019-04-07T09:44:12.614Z,19.39
2019-04-07T09:45:13.944Z,19.39
2019-04-07T09:46:12.119Z,19.43
2019-04-07T09:47:11.536Z,19.43
2019-04-07T09:48:10.735Z,19.44
2019-04-07T09:49:10.811Z,19.44
2019-04-07T09:50:11.557Z,19.45
2019-04-07T09:51:11.352Z,19.45
2019-04-07T09:52:18.058Z,19.45
2019-04-07T09:53:10.777Z,19.45
2019-04-07T09:54:11.298Z,19.45
2019-04-07T09:55:12.122Z,19.45
2019-04-07T09:56:13.203Z,19.46
2019-04-07T09:57:11.865Z,19.47
2019-04-07T09:58:12.199Z,19.47
2019-04-07T09:59:20.471Z,19.48
2019-04-07T10:00:12.426Z,19.47
2019-04-07T10:01:20.877Z,19.48
2019-04-07T10:02:13.317Z,19.49
2019-04-07T10:03:16.523Z,19.49
2019-04-07T10:04:12.362Z,19.5
2019-04-07T10:05:11.931Z,19.5
2019-04-07T10:06:10.839Z,19.5
2019-04-07T10:07:17.433Z,19.51
2019-04-07T10:08:20.393Z,19.51
2019-04-07T10:09:11.817Z,19.52
2019-04-07T10:10:17.254Z,19.51
2019-04-07T10:11:10.802Z,19.51
2019-04-07T10:12:10.601Z,19.52
2019-04-07T10:13:11.301Z,19.52
2019-04-07T10:14:10.768Z,19.52
2019-04-07T10:15:13.155Z,19.52
2019-04-07T10:16:12.192Z,19.52
2019-04-07T10:17:12.054Z,19.53
2019-04-07T10:18:10.822Z,19.54
2019-04-07T10:19:11.163Z,19.53
2019-04-07T10:20:12.572Z,19.54
2019-04-07T10:21:11.265Z,19.56
2019-04-07T10:22:10.864Z,19.55
2019-04-07T10:23:11.080Z,19.54
2019-04-07T10:24:10.623Z,19.54
2019-04-07T10:25:10.988Z,19.54
2019-04-07T10:26:10.649Z,19.54
2019-04-07T10:27:11.096Z,19.55
2019-04-07T10:28:13.971Z,19.54
2019-04-07T10:29:12.025Z,19.54
2019-04-07T10:30:11.250Z,19.56
2019-04-07T10:31:11.554Z,19.56
2019-04-07T10:32:11.814Z,19.56
2019-04-07T10:33:10.680Z,19.56
2019-04-07T10:34:13.714Z,19.56
2019-04-07T10:35:11.482Z,19.57
2019-04-07T10:36:11.483Z,19.57
2019-04-07T10:37:10.668Z,19.58
2019-04-07T10:38:11.999Z,19.57
2019-04-07T10:39:10.604Z,19.57
2019-04-07T10:40:24.442Z,19.58
2019-04-07T10:41:11.971Z,19.58
2019-04-07T10:42:11.525Z,19.59
2019-04-07T10:43:12.878Z,19.59
2019-04-07T10:44:10.682Z,19.6
2019-04-07T10:45:12.152Z,19.6
2019-04-07T10:46:11.703Z,19.6
2019-04-07T10:47:12.041Z,19.61
2019-04-07T10:48:11.871Z,19.63
2019-04-07T10:49:11.500Z,19.63
2019-04-07T10:50:11.582Z,19.63
2019-04-07T10:51:10.855Z,19.63
2019-04-07T10:52:11.586Z,19.63
2019-04-07T10:53:11.603Z,19.63
2019-04-07T10:54:10.637Z,19.63
2019-04-07T10:55:10.570Z,19.63
2019-04-07T10:56:10.673Z,19.63
2019-04-07T10:57:12.389Z,19.64
2019-04-07T10:58:11.693Z,19.63
2019-04-07T10:59:11.641Z,19.63
2019-04-07T11:00:11.252Z,19.64
2019-04-07T11:01:11.485Z,19.64
2019-04-07T11:02:12.149Z,19.65
2019-04-07T11:03:12.222Z,19.66
2019-04-07T11:04:10.829Z,19.65
2019-04-07T11:05:10.540Z,19.63
2019-04-07T11:06:12.748Z,19.63
2019-04-07T11:07:10.889Z,19.62
2019-04-07T11:08:11.820Z,19.62
2019-04-07T11:09:11.408Z,19.61
2019-04-07T11:10:12.593Z,19.61
2019-04-07T11:11:10.621Z,19.61
2019-04-07T11:12:11.117Z,19.6
2019-04-07T11:13:16.918Z,19.61
2019-04-07T11:14:11.599Z,19.61
2019-04-07T11:15:10.839Z,19.63
2019-04-07T11:16:11.161Z,19.61
2019-04-07T11:17:10.684Z,19.61
2019-04-07T11:18:10.716Z,19.61
2019-04-07T11:19:11.270Z,19.6
2019-04-07T11:20:11.755Z,19.6
2019-04-07T11:21:11.111Z,19.6
2019-04-07T11:22:10.731Z,19.6
2019-04-07T11:23:12.058Z,19.6
2019-04-07T11:24:10.787Z,19.6
2019-04-07T11:25:11.786Z,19.61
2019-04-07T11:26:11.432Z,19.61
2019-04-07T11:27:11.491Z,19.62
2019-04-07T11:28:12.303Z,19.62
2019-04-07T11:29:10.565Z,19.62
2019-04-07T11:30:11.656Z,19.63
2019-04-07T11:31:10.804Z,19.63
2019-04-07T11:32:10.695Z,19.63
2019-04-07T11:33:11.835Z,19.63
2019-04-07T11:34:11.275Z,19.64
2019-04-07T11:35:11.382Z,19.64
2019-04-07T11:36:11.007Z,19.63
2019-04-07T11:37:14.438Z,19.64
2019-04-07T11:38:10.670Z,19.65
2019-04-07T11:39:12.118Z,19.65
2019-04-07T11:40:11.856Z,19.67
2019-04-07T11:41:11.320Z,19.67
2019-04-07T11:42:10.862Z,19.67
2019-04-07T11:43:10.984Z,19.66
2019-04-07T11:44:10.782Z,19.66
2019-04-07T11:45:11.469Z,19.67
2019-04-07T11:46:12.041Z,19.66
2019-04-07T11:47:11.458Z,19.67
2019-04-07T11:48:10.604Z,19.68
2019-04-07T11:49:13.719Z,19.67
2019-04-07T11:50:10.731Z,19.68
2019-04-07T11:51:10.823Z,19.66
2019-04-07T11:52:11.572Z,19.67
2019-04-07T11:53:11.307Z,19.67
2019-04-07T11:54:10.708Z,19.67
2019-04-07T11:55:11.964Z,19.66
2019-04-07T11:56:11.868Z,19.65
2019-04-07T11:57:11.885Z,19.63
2019-04-07T11:58:35.813Z,19.63
2019-04-07T11:59:10.824Z,19.64
2019-04-07T12:00:11.762Z,19.65
2019-04-07T12:01:16.759Z,19.67
2019-04-07T12:02:10.993Z,19.66
2019-04-07T12:03:12.160Z,19.67
2019-04-07T12:04:17.480Z,19.67
2019-04-07T12:05:10.689Z,19.68
2019-04-07T12:06:20.176Z,19.69
2019-04-07T12:07:12.921Z,19.69
2019-04-07T12:08:11.689Z,19.71
2019-04-07T12:09:11.210Z,19.71
2019-04-07T12:10:12.687Z,19.72
2019-04-07T12:11:17.902Z,19.72
2019-04-07T12:12:12.389Z,19.74
2019-04-07T12:13:10.705Z,19.74
2019-04-07T12:14:16.861Z,19.75
2019-04-07T12:15:10.833Z,19.75
2019-04-07T12:16:10.768Z,19.76
2019-04-07T12:17:15.361Z,19.77
2019-04-07T12:18:20.444Z,19.78
2019-04-07T12:19:12.812Z,19.79
2019-04-07T12:20:11.097Z,19.78
2019-04-07T12:21:27.770Z,19.79
2019-04-07T12:22:14.596Z,19.79
2019-04-07T12:23:10.808Z,19.81
2019-04-07T12:24:10.825Z,19.81
2019-04-07T12:25:10.819Z,19.82
2019-04-07T12:26:10.653Z,19.82
2019-04-07T12:27:13.791Z,19.83
2019-04-07T12:28:21.416Z,19.83
2019-04-07T12:29:10.975Z,19.85
2019-04-07T12:30:10.678Z,19.85
2019-04-07T12:31:10.794Z,19.86
2019-04-07T12:32:12.049Z,19.86
2019-04-07T12:33:12.412Z,19.88
2019-04-07T12:34:15.672Z,19.88
2019-04-07T12:35:11.967Z,19.88
2019-04-07T12:36:10.601Z,19.88
2019-04-07T12:37:11.713Z,19.88
2019-04-07T12:38:13.747Z,19.89
2019-04-07T12:39:19.141Z,19.9
2019-04-07T12:40:11.144Z,19.9
2019-04-07T12:41:24.583Z,19.91
2019-04-07T12:42:12.483Z,19.91
2019-04-07T12:43:15.614Z,19.93
2019-04-07T12:44:12.641Z,19.94
2019-04-07T12:45:13.460Z,19.94
2019-04-07T12:46:11.805Z,19.94
2019-04-07T12:47:13.566Z,19.95
2019-04-07T12:48:11.779Z,19.96
2019-04-07T12:49:10.738Z,19.97
2019-04-07T12:50:22.011Z,19.97
2019-04-07T12:51:10.531Z,19.99
2019-04-07T12:52:10.556Z,20
2019-04-07T12:53:10.615Z,20.01
2019-04-07T12:54:11.953Z,20.02
2019-04-07T12:55:19.437Z,20.02
2019-04-07T12:56:11.590Z,20.04